createdAt,value
2018-07-25T00:02:07.287Z,18.13
2018-07-25T00:04:38.983Z,18.15
2018-07-25T00:07:09.084Z,18.12
2018-07-25T00:09:39.473Z,18.10
2018-07-25T00:12:10.230Z,18.06
2018-07-25T00:14:40.262Z,18.03
2018-07-25T00:17:11.667Z,17.95
2018-07-25T00:19:41.942Z,17.85
2018-07-25T00:22:12.491Z,17.78
2018-07-25T00:24:43.254Z,17.74
2018-07-25T00:27:13.378Z,17.67
2018-07-25T00:29:44.135Z,17.65
2018-07-25T00:32:14.749Z,17.64
2018-07-25T00:34:45.100Z,17.67
2018-07-25T00:37:15.797Z,17.67
2018-07-25T00:39:45.788Z,17.64
2018-07-25T00:42:16.085Z,17.67
2018-07-25T00:44:46.477Z,17.61
2018-07-25T00:47:17.055Z,17.59
2018-07-25T00:49:50.351Z,17.52
2018-07-25T00:52:20.319Z,17.49
2018-07-25T00:54:51.147Z,17.47
2018-07-25T00:57:21.682Z,17.43
2018-07-25T00:59:51.782Z,17.39
2018-07-25T01:02:21.776Z,17.35
2018-07-25T01:04:53.747Z,17.31
2018-07-25T01:07:25.222Z,17.27
2018-07-25T01:09:55.176Z,17.28
2018-07-25T01:12:26.133Z,17.28
2018-07-25T01:14:56.437Z,17.23
2018-07-25T01:17:26.430Z,17.15
2018-07-25T01:19:59.520Z,17.14
2018-07-25T01:22:29.816Z,17.13
2018-07-25T01:25:00.308Z,17.06
2018-07-25T01:27:30.272Z,17.00
2018-07-25T01:30:00.277Z,16.98
2018-07-25T01:32:30.256Z,16.94
2018-07-25T01:35:00.683Z,16.93
2018-07-25T01:37:30.693Z,16.94
2018-07-25T01:40:01.606Z,16.89
2018-07-25T01:42:31.830Z,16.84
2018-07-25T01:45:01.982Z,16.79
2018-07-25T01:47:31.982Z,16.78
2018-07-25T01:50:02.409Z,16.77
2018-07-25T01:52:32.432Z,16.76
2018-07-25T01:55:02.314Z,16.71
2018-07-25T01:57:32.518Z,16.70
2018-07-25T02:00:02.519Z,16.66
2018-07-25T02:02:32.485Z,16.57
2018-07-25T02:05:02.882Z,16.52
2018-07-25T02:07:32.884Z,16.53
2018-07-25T02:10:02.871Z,16.53
2018-07-25T02:12:32.864Z,16.51
2018-07-25T02:15:02.898Z,16.46
2018-07-25T02:17:32.896Z,16.48
2018-07-25T02:20:04.378Z,16.43
2018-07-25T02:22:34.407Z,16.37
2018-07-25T02:25:04.431Z,16.36
2018-07-25T02:27:34.571Z,16.39
2018-07-25T02:30:04.720Z,16.38
2018-07-25T02:32:34.792Z,16.37
2018-07-25T02:35:05.262Z,16.32
2018-07-25T02:37:35.701Z,16.29
2018-07-25T02:40:05.699Z,16.20
2018-07-25T02:42:35.742Z,16.17
2018-07-25T02:45:05.726Z,16.14
2018-07-25T02:47:35.815Z,16.06
2018-07-25T02:50:06.521Z,16.08
2018-07-25T02:52:36.666Z,16.03
2018-07-25T02:55:07.566Z,16.05
2018-07-25T02:57:37.563Z,16.05
2018-07-25T03:00:07.974Z,16.01
2018-07-25T03:02:37.938Z,15.96
2018-07-25T03:05:08.774Z,15.94
2018-07-25T03:07:38.856Z,15.91
2018-07-25T03:10:08.875Z,15.91
2018-07-25T03:12:38.937Z,15.95
2018-07-25T03:15:08.962Z,15.96
2018-07-25T03:17:38.905Z,15.92
2018-07-25T03:20:09.346Z,15.89
2018-07-25T03:22:39.311Z,15.87
2018-07-25T03:25:09.279Z,15.88
2018-07-25T03:27:39.297Z,15.88
2018-07-25T03:30:09.261Z,15.88
2018-07-25T03:32:39.390Z,15.82
2018-07-25T03:35:09.855Z,15.79
2018-07-25T03:37:39.830Z,15.84
2018-07-25T03:40:09.960Z,15.85
2018-07-25T03:42:40.127Z,15.79
2018-07-25T03:45:10.104Z,15.75
2018-07-25T03:47:40.038Z,15.77
2018-07-25T03:50:10.610Z,15.80
2018-07-25T03:52:40.636Z,15.81
2018-07-25T03:55:11.254Z,15.81
2018-07-25T03:57:41.370Z,15.79
2018-07-25T04:00:11.410Z,15.76
2018-07-25T04:02:41.666Z,15.82
2018-07-25T04:05:12.923Z,15.87
2018-07-25T04:07:43.070Z,15.98
2018-07-25T04:10:13.031Z,16.03
2018-07-25T04:12:42.971Z,16.02
2018-07-25T04:15:12.927Z,16.10
2018-07-25T04:17:45.506Z,16.13
2018-07-25T04:20:16.746Z,16.24
2018-07-25T04:22:46.762Z,16.34
2018-07-25T04:25:16.790Z,16.41
2018-07-25T04:27:47.422Z,16.45
2018-07-25T04:30:18.158Z,16.51
2018-07-25T04:32:48.127Z,16.56
2018-07-25T04:35:18.452Z,16.63
2018-07-25T04:37:48.400Z,16.70
2018-07-25T04:40:18.446Z,16.76
2018-07-25T04:42:48.824Z,16.84
2018-07-25T04:45:18.726Z,16.86
2018-07-25T04:47:48.711Z,16.90
2018-07-25T04:50:18.628Z,16.97
2018-07-25T04:52:48.598Z,17.08
2018-07-25T04:55:18.631Z,17.19
2018-07-25T04:57:48.637Z,17.29
2018-07-25T05:00:18.568Z,17.39
2018-07-25T05:02:48.575Z,17.51
2018-07-25T05:05:19.009Z,17.63
2018-07-25T05:07:49.655Z,17.77
2018-07-25T05:10:19.907Z,17.90
2018-07-25T05:12:50.011Z,18.05
2018-07-25T05:15:20.103Z,18.20
2018-07-25T05:17:50.053Z,18.36
2018-07-25T05:20:20.363Z,18.49
2018-07-25T05:22:50.479Z,18.62
2018-07-25T05:25:20.450Z,18.77
2018-07-25T05:27:51.045Z,18.96
2018-07-25T05:30:21.013Z,19.12
2018-07-25T05:32:50.972Z,19.28
2018-07-25T05:35:31.343Z,19.48
2018-07-25T05:38:01.477Z,19.67
2018-07-25T05:40:31.483Z,19.86
2018-07-25T05:43:01.458Z,20.03
2018-07-25T05:45:32.450Z,20.19
2018-07-25T05:48:02.571Z,20.38
2018-07-25T05:50:33.061Z,20.58
2018-07-25T05:53:03.046Z,20.78
2018-07-25T05:55:33.305Z,21.00
2018-07-25T05:58:03.364Z,21.22
2018-07-25T06:00:33.299Z,21.45
2018-07-25T06:03:03.313Z,21.66
2018-07-25T06:05:33.764Z,21.84
2018-07-25T06:08:05.679Z,22.05
2018-07-25T06:10:35.695Z,22.20
2018-07-25T06:13:05.663Z,22.35
2018-07-25T06:15:35.700Z,22.53
2018-07-25T06:18:05.743Z,22.78
2018-07-25T06:20:37.316Z,22.92
2018-07-25T06:23:07.493Z,23.13
2018-07-25T06:25:37.604Z,23.30
2018-07-25T06:28:08.734Z,23.51
2018-07-25T06:30:38.672Z,23.67
2018-07-25T06:33:14.595Z,23.87
2018-07-25T06:35:46.114Z,24.07
2018-07-25T06:38:16.505Z,24.22
2018-07-25T06:40:48.811Z,24.41
2018-07-25T06:43:19.276Z,24.50
2018-07-25T06:45:50.455Z,24.53
2018-07-25T06:48:21.375Z,24.65
2018-07-25T06:50:52.803Z,24.87
2018-07-25T06:53:24.252Z,25.00
2018-07-25T06:55:54.179Z,25.11
2018-07-25T06:58:30.003Z,25.27
2018-07-25T07:01:00.915Z,25.38
2018-07-25T07:03:32.079Z,25.46
2018-07-25T07:06:08.266Z,25.50
2018-07-25T07:08:39.187Z,25.64
2018-07-25T07:11:10.138Z,25.72
2018-07-25T07:13:40.698Z,25.90
2018-07-25T07:16:11.594Z,26.07
2018-07-25T07:18:42.254Z,26.11
2018-07-25T07:21:12.655Z,26.24
2018-07-25T07:23:44.088Z,26.43
2018-07-25T07:26:15.856Z,26.48
2018-07-25T07:28:47.142Z,26.34
2018-07-25T07:31:17.113Z,26.39
2018-07-25T07:33:48.183Z,26.58
2018-07-25T07:36:18.278Z,26.63
2018-07-25T07:38:51.767Z,26.51
2018-07-25T07:41:21.738Z,26.49
2018-07-25T07:43:52.285Z,26.47
2018-07-25T07:46:22.621Z,26.72
2018-07-25T07:48:52.556Z,26.81
2018-07-25T07:51:22.476Z,26.87
2018-07-25T07:53:56.551Z,26.78
2018-07-25T07:56:28.238Z,26.89
2018-07-25T07:59:01.270Z,26.95
2018-07-25T08:01:36.250Z,26.98
2018-07-25T08:04:07.443Z,27.02
2018-07-25T08:06:37.986Z,26.89
2018-07-25T08:09:12.897Z,26.91
2018-07-25T08:11:42.921Z,26.76
2018-07-25T08:14:13.075Z,26.68
2018-07-25T08:16:43.846Z,26.46
2018-07-25T08:19:15.839Z,26.46
2018-07-25T08:21:46.763Z,26.25
2018-07-25T08:24:17.126Z,26.25
2018-07-25T08:26:47.019Z,26.54
2018-07-25T08:29:17.740Z,26.73
2018-07-25T08:31:47.668Z,26.84
2018-07-25T08:34:18.982Z,27.06
2018-07-25T08:36:50.054Z,27.24
2018-07-25T08:39:20.015Z,27.27
2018-07-25T08:41:50.304Z,27.17
2018-07-25T08:44:21.973Z,27.13
2018-07-25T08:46:52.243Z,27.06
2018-07-25T08:49:23.338Z,27.06
2018-07-25T08:51:53.911Z,27.13
2018-07-25T08:54:25.003Z,27.27
2018-07-25T08:56:55.278Z,27.42
2018-07-25T08:59:25.207Z,27.49
2018-07-25T09:01:55.484Z,27.51
2018-07-25T09:04:26.394Z,27.39
2018-07-25T09:06:58.375Z,27.43
2018-07-25T09:09:29.356Z,27.48
2018-07-25T09:11:59.582Z,27.46
2018-07-25T09:14:30.509Z,27.45
2018-07-25T09:17:03.651Z,27.36
2018-07-25T09:19:35.549Z,27.41
2018-07-25T09:22:06.757Z,27.34
2018-07-25T09:24:36.723Z,27.40
2018-07-25T09:27:07.279Z,27.49
2018-07-25T09:29:37.535Z,27.45
2018-07-25T09:32:08.503Z,27.41
2018-07-25T09:34:39.283Z,27.38
2018-07-25T09:37:09.791Z,27.39
2018-07-25T09:39:40.776Z,27.30
2018-07-25T09:42:11.795Z,27.19
2018-07-25T09:44:41.815Z,27.23
2018-07-25T09:47:13.198Z,27.27
2018-07-25T09:49:43.406Z,27.12
2018-07-25T09:52:14.499Z,27.09
2018-07-25T09:54:44.454Z,27.24
2018-07-25T09:57:15.313Z,27.28
2018-07-25T09:59:47.172Z,27.39
2018-07-25T10:02:17.167Z,27.51
2018-07-25T10:04:47.334Z,27.62
2018-07-25T10:07:19.367Z,27.69
2018-07-25T10:09:51.420Z,27.74
2018-07-25T10:12:25.248Z,27.79
2018-07-25T10:14:55.204Z,27.86
2018-07-25T10:17:26.160Z,28.06
2018-07-25T10:19:56.340Z,28.22
2018-07-25T10:22:27.093Z,28.45
2018-07-25T10:24:57.407Z,28.34
2018-07-25T10:27:29.403Z,28.30
2018-07-25T10:30:00.777Z,28.25
2018-07-25T10:32:35.190Z,28.34
2018-07-25T10:35:07.023Z,28.19
2018-07-25T10:37:37.623Z,28.01
2018-07-25T10:40:08.987Z,27.87
2018-07-25T10:42:51.843Z,27.81
2018-07-25T10:45:27.432Z,27.91
2018-07-25T10:50:39.361Z,28.24
2018-07-25T10:53:09.432Z,28.47
2018-07-25T10:58:26.148Z,28.94
2018-07-25T11:00:56.216Z,28.93
2018-07-25T11:03:27.341Z,29.15
2018-07-25T11:05:59.385Z,29.37
2018-07-25T11:08:30.357Z,29.21
2018-07-25T11:11:01.243Z,29.13
2018-07-25T11:13:33.366Z,29.13
2018-07-25T11:16:07.216Z,29.12
2018-07-25T11:18:37.823Z,29.35
2018-07-25T11:21:09.484Z,29.43
2018-07-25T11:23:41.416Z,29.40
2018-07-25T11:26:12.087Z,29.47
2018-07-25T11:28:44.356Z,29.18
2018-07-25T11:31:16.401Z,28.89
2018-07-25T11:33:46.903Z,28.90
2018-07-25T11:36:19.040Z,29.07
2018-07-25T11:38:49.448Z,29.04
2018-07-25T11:41:21.899Z,29.15
2018-07-25T11:43:52.309Z,29.21
2018-07-25T11:46:22.879Z,29.25
2018-07-25T11:48:56.538Z,29.36
2018-07-25T11:51:27.268Z,29.44
2018-07-25T11:54:00.555Z,29.37
2018-07-25T11:56:38.459Z,29.26
2018-07-25T11:59:10.291Z,29.02
2018-07-25T12:01:41.648Z,29.07
2018-07-25T12:04:11.871Z,29.12
2018-07-25T12:06:43.683Z,29.20
2018-07-25T12:09:14.042Z,29.35
2018-07-25T12:11:49.179Z,29.31
2018-07-25T12:14:20.352Z,29.35
2018-07-25T12:16:52.181Z,29.41
2018-07-25T12:19:22.358Z,29.70
2018-07-25T12:21:52.455Z,29.89
2018-07-25T12:24:23.480Z,30.02
2018-07-25T12:26:53.795Z,29.93
2018-07-25T12:29:25.142Z,29.61
2018-07-25T12:31:55.868Z,29.37
2018-07-25T12:34:30.020Z,29.39
2018-07-25T12:37:02.155Z,29.41
2018-07-25T12:39:32.680Z,29.39
2018-07-25T12:42:02.710Z,29.40
2018-07-25T12:44:33.566Z,29.27
2018-07-25T12:47:04.110Z,28.99
2018-07-25T12:49:34.406Z,29.05
2018-07-25T12:52:04.518Z,29.04
2018-07-25T12:54:35.447Z,29.06
2018-07-25T12:57:05.413Z,29.08
2018-07-25T12:59:35.883Z,29.16
2018-07-25T13:02:08.468Z,29.12
2018-07-25T13:04:38.455Z,29.18
2018-07-25T13:07:09.463Z,29.23
2018-07-25T13:09:40.574Z,29.23
2018-07-25T13:12:10.570Z,29.30
2018-07-25T13:14:43.435Z,29.13
2018-07-25T13:17:13.540Z,28.90
2018-07-25T13:19:43.791Z,29.02
2018-07-25T13:22:13.879Z,29.18
2018-07-25T13:24:45.913Z,29.25
2018-07-25T13:27:16.431Z,29.47
2018-07-25T13:29:46.617Z,29.25
2018-07-25T13:32:17.315Z,29.16
2018-07-25T13:34:47.918Z,29.08
2018-07-25T13:37:19.350Z,28.87
2018-07-25T13:39:50.890Z,28.83
2018-07-25T13:42:22.890Z,28.91
2018-07-25T13:44:55.405Z,29.03
2018-07-25T13:47:31.097Z,29.24
2018-07-25T13:50:01.527Z,29.41
2018-07-25T13:52:33.095Z,29.66
2018-07-25T13:55:06.626Z,30.04
2018-07-25T13:57:36.785Z,30.12
2018-07-25T14:00:10.136Z,30.13
2018-07-25T14:02:47.821Z,30.13
2018-07-25T14:05:18.690Z,30.20
2018-07-25T14:07:50.122Z,29.96
2018-07-25T14:10:20.551Z,29.70
2018-07-25T14:12:50.561Z,29.37
2018-07-25T14:15:20.958Z,29.26
2018-07-25T14:17:52.409Z,29.15
2018-07-25T14:20:23.784Z,29.29
2018-07-25T14:22:54.159Z,29.71
2018-07-25T14:25:24.582Z,30.19
2018-07-25T14:27:55.926Z,30.16
2018-07-25T14:30:28.644Z,30.15
2018-07-25T14:33:04.845Z,30.26
2018-07-25T14:35:36.572Z,30.54
2018-07-25T14:38:14.576Z,30.95
2018-07-25T14:40:45.934Z,31.16
2018-07-25T14:43:16.533Z,31.54
2018-07-25T14:45:48.164Z,31.57
2018-07-25T14:48:21.437Z,31.78
2018-07-25T14:51:01.939Z,31.94
2018-07-25T14:53:32.574Z,32.22
2018-07-25T14:56:03.380Z,32.39
2018-07-25T14:58:37.894Z,32.36
2018-07-25T15:01:16.186Z,31.85
2018-07-25T15:03:48.228Z,31.31
2018-07-25T15:06:19.789Z,30.94
2018-07-25T15:08:52.297Z,30.66
2018-07-25T15:11:22.279Z,30.37
2018-07-25T15:13:53.814Z,29.97
2018-07-25T15:16:23.755Z,29.80
2018-07-25T15:18:54.877Z,29.92
2018-07-25T15:21:27.166Z,30.21
2018-07-25T15:24:04.232Z,30.69
2018-07-25T15:26:34.613Z,30.95
2018-07-25T15:29:05.336Z,31.13
2018-07-25T15:31:35.547Z,31.41
2018-07-25T15:34:06.448Z,31.58
2018-07-25T15:36:46.520Z,31.69
2018-07-25T15:39:22.499Z,31.79
2018-07-25T15:41:54.115Z,31.80
2018-07-25T15:44:25.306Z,31.70
2018-07-25T15:46:56.744Z,31.89
2018-07-25T15:49:27.423Z,32.01
2018-07-25T15:51:58.217Z,31.63
2018-07-25T15:54:29.019Z,31.47
2018-07-25T15:57:00.479Z,31.34
2018-07-25T15:59:31.164Z,31.44
2018-07-25T16:02:02.353Z,31.36
2018-07-25T16:04:33.338Z,31.52
2018-07-25T16:07:03.282Z,31.77
2018-07-25T16:09:34.131Z,31.72
2018-07-25T16:12:08.089Z,31.69
2018-07-25T16:14:38.074Z,31.76
2018-07-25T16:17:10.021Z,31.81
2018-07-25T16:20:12.060Z,32.01
2018-07-25T16:22:47.150Z,32.00
2018-07-25T16:25:20.603Z,32.04
2018-07-25T16:27:51.425Z,32.02
2018-07-25T16:30:24.913Z,32.33
2018-07-25T16:33:01.411Z,32.48
2018-07-25T16:35:32.523Z,32.36
2018-07-25T16:38:04.444Z,32.20
2018-07-25T16:43:13.480Z,32.38
2018-07-25T16:45:44.179Z,32.36
2018-07-25T16:48:15.867Z,32.18
2018-07-25T16:50:47.276Z,31.93
2018-07-25T16:53:24.979Z,32.05
2018-07-25T16:55:55.506Z,31.80
2018-07-25T16:58:26.450Z,31.57
2018-07-25T17:01:09.020Z,31.60
2018-07-25T17:03:43.669Z,31.21
2018-07-25T17:06:17.851Z,30.97
2018-07-25T17:08:58.668Z,30.75
2018-07-25T17:11:32.281Z,30.56
2018-07-25T17:14:41.277Z,30.45
2018-07-25T17:25:04.620Z,29.74
2018-07-25T17:27:51.759Z,29.16
2018-07-25T17:30:46.715Z,29.16
2018-07-25T17:33:19.862Z,29.17
2018-07-25T17:35:54.871Z,29.04
2018-07-25T17:38:44.868Z,28.99
2018-07-25T17:41:16.569Z,28.93
2018-07-25T17:46:38.435Z,28.70
2018-07-25T17:49:13.802Z,28.65
2018-07-25T17:51:43.838Z,28.46
2018-07-25T17:54:24.336Z,28.42
2018-07-25T17:59:50.986Z,28.27
2018-07-25T18:02:35.561Z,28.18
2018-07-25T18:05:08.790Z,28.07
2018-07-25T18:08:05.324Z,27.93
2018-07-25T18:10:43.015Z,27.81
2018-07-25T18:13:25.403Z,27.60
2018-07-25T18:15:58.395Z,27.45
2018-07-25T18:18:29.650Z,27.34
2018-07-25T18:21:00.378Z,27.30
2018-07-25T18:23:35.505Z,27.19
2018-07-25T18:26:08.033Z,27.10
2018-07-25T18:28:50.104Z,26.97
2018-07-25T18:31:39.861Z,26.84
2018-07-25T18:34:21.428Z,26.78
2018-07-25T18:36:58.451Z,26.70
2018-07-25T18:39:47.851Z,26.64
2018-07-25T18:42:32.003Z,26.56
2018-07-25T18:45:11.814Z,26.46
2018-07-25T18:47:53.446Z,26.33
2018-07-25T18:50:32.232Z,26.28
